Weather at Ledgedale Airpark

Public forecast

Using degrees Fahrenheit for public forecast. Weather courtesy of forecast.io.

Closest aviation weather report (METAR) to Ledgedale Airpark

Closest report is Frederick Douglass Greater Rochester International Airport, 11.3 nm (20.9 km) ESE.

2024/02/22 10:54 (retrieved 22 minutes ago)

KROC 221054Z 22013G21KT 10SM OVC070 07/M02 A2983 RMK AO2 SLP105 T00671022

Closest aviation forecast (TAF) to Ledgedale Airpark

Closest forecast is Frederick Douglass Greater Rochester International Airport, 11.3 nm (20.9 km) ESE.

2024/02/22 06:30 (retrieved 5 hours ago)

TAF KROC 220526Z 2206/2306 19010G18KT P6SM OVC100 FM221000 20010KT P6SM VCSH OVC050 FM221700 20008KT P6SM -RA OVC030 FM222000 18007KT 6SM -RA BR OVC015 FM230200 21004KT 4SM BR OVC007